createdAt,value
2022-11-27T00:00:32.326Z,39.87
2022-11-27T00:03:35.058Z,34.90
2022-11-27T00:06:39.679Z,35.43
2022-11-27T00:09:42.645Z,31.60
2022-11-27T00:12:46.709Z,36.00
2022-11-27T00:15:49.415Z,34.47
2022-11-27T00:18:52.699Z,33.43
2022-11-27T00:21:55.370Z,31.07
2022-11-27T00:24:58.021Z,38.33
2022-11-27T00:28:02.031Z,33.20
2022-11-27T00:31:07.221Z,25.17
2022-11-27T00:34:09.948Z,31.10
2022-11-27T00:37:14.723Z,30.07
2022-11-27T00:40:17.622Z,26.90
2022-11-27T00:43:21.621Z,34.07
2022-11-27T00:46:28.785Z,28.87
2022-11-27T00:49:32.153Z,33.33
2022-11-27T00:52:34.889Z,29.23
2022-11-27T00:55:37.521Z,27.20
2022-11-27T00:58:41.499Z,27.47
2022-11-27T01:01:45.009Z,28.03
2022-11-27T01:04:48.081Z,24.00
2022-11-27T01:07:51.009Z,29.67
2022-11-27T01:10:55.317Z,26.77
2022-11-27T01:14:00.639Z,26.60
2022-11-27T01:17:03.277Z,28.20
2022-11-27T01:20:07.084Z,25.17
2022-11-27T01:23:09.700Z,32.80
2022-11-27T01:26:14.024Z,25.87
2022-11-27T01:29:18.009Z,26.10
2022-11-27T01:32:20.638Z,25.17
2022-11-27T01:35:23.231Z,22.47
2022-11-27T01:38:26.690Z,23.60
2022-11-27T01:41:32.632Z,22.30
2022-11-27T01:44:55.769Z,24.07
2022-11-27T01:48:02.670Z,21.40
2022-11-27T01:51:06.022Z,20.57
2022-11-27T01:54:10.362Z,23.67
2022-11-27T01:57:16.706Z,27.13
2022-11-27T02:00:21.925Z,24.87
2022-11-27T02:03:24.663Z,21.00
2022-11-27T02:06:27.592Z,24.43
2022-11-27T02:09:31.512Z,22.73
2022-11-27T02:12:41.403Z,23.70
2022-11-27T02:15:53.705Z,22.87
2022-11-27T02:19:02.068Z,29.30
2022-11-27T02:22:11.650Z,21.23
2022-11-27T02:25:28.506Z,23.03
2022-11-27T02:28:42.530Z,21.23
2022-11-27T02:31:53.348Z,20.13
2022-11-27T02:35:02.603Z,23.67
2022-11-27T02:38:11.588Z,23.63
2022-11-27T02:41:20.740Z,20.67
2022-11-27T02:44:28.009Z,18.53
2022-11-27T02:47:33.659Z,19.07
2022-11-27T02:50:39.211Z,17.60
2022-11-27T02:53:47.432Z,16.90
2022-11-27T02:56:52.526Z,20.73
2022-11-27T02:59:57.552Z,18.30
2022-11-27T03:03:06.657Z,18.73
2022-11-27T03:06:12.596Z,21.80
2022-11-27T03:09:19.843Z,19.07
2022-11-27T03:12:22.483Z,17.93
2022-11-27T03:15:28.202Z,16.73
2022-11-27T03:18:38.185Z,19.40
2022-11-27T03:21:43.576Z,26.97
2022-11-27T03:24:46.281Z,19.50
2022-11-27T03:27:54.515Z,15.20
2022-11-27T03:30:57.277Z,21.73
2022-11-27T03:34:01.796Z,21.53
2022-11-27T03:37:05.314Z,18.67
2022-11-27T03:40:10.026Z,17.90
2022-11-27T03:43:19.329Z,19.80
2022-11-27T03:46:30.453Z,19.73
2022-11-27T03:49:49.606Z,19.60
2022-11-27T03:53:01.672Z,19.67
2022-11-27T03:56:12.105Z,21.23
2022-11-27T03:59:20.173Z,16.37
2022-11-27T04:02:31.451Z,18.80
2022-11-27T04:05:35.417Z,21.03
2022-11-27T04:08:38.203Z,16.17
2022-11-27T04:11:40.817Z,21.27
2022-11-27T04:14:43.416Z,16.63
2022-11-27T04:17:46.155Z,22.63
2022-11-27T04:20:50.118Z,23.60
2022-11-27T04:23:52.777Z,22.17
2022-11-27T04:26:55.425Z,19.47
2022-11-27T04:29:58.116Z,25.00
2022-11-27T04:33:00.745Z,22.37
2022-11-27T04:36:05.120Z,19.27
2022-11-27T04:39:07.769Z,24.87
2022-11-27T04:42:10.377Z,23.60
2022-11-27T04:45:13.103Z,25.00
2022-11-27T04:48:15.704Z,24.33
2022-11-27T04:51:19.710Z,22.60
2022-11-27T04:54:22.452Z,22.23
2022-11-27T04:57:25.163Z,24.40
2022-11-27T05:00:27.858Z,19.73
2022-11-27T05:03:30.541Z,17.23
2022-11-27T05:06:34.511Z,24.30
2022-11-27T05:09:37.113Z,22.90
2022-11-27T05:12:39.771Z,20.23
2022-11-27T05:15:42.419Z,25.03
2022-11-27T05:18:45.070Z,24.27
2022-11-27T05:21:49.887Z,23.87
2022-11-27T05:24:52.569Z,20.73
2022-11-27T05:27:55.197Z,22.00
2022-11-27T05:30:57.908Z,20.00
2022-11-27T05:34:01.187Z,23.03
2022-11-27T05:37:05.198Z,22.83
2022-11-27T05:40:09.094Z,28.70
2022-11-27T05:43:11.768Z,22.67
2022-11-27T05:46:16.876Z,26.73
2022-11-27T05:49:19.539Z,20.17
2022-11-27T05:52:23.599Z,22.23
2022-11-27T05:55:26.257Z,23.03
2022-11-27T05:58:28.840Z,26.40
2022-11-27T06:01:31.612Z,24.23
2022-11-27T06:04:34.569Z,24.47
2022-11-27T06:07:38.598Z,22.23
2022-11-27T06:10:41.866Z,24.30
2022-11-27T06:13:45.070Z,21.23
2022-11-27T06:16:47.911Z,21.87
2022-11-27T06:19:51.479Z,23.10
2022-11-27T06:22:57.124Z,21.47
2022-11-27T06:25:59.769Z,22.70
2022-11-27T06:29:02.980Z,23.77
2022-11-27T06:32:06.537Z,21.87
2022-11-27T06:35:10.189Z,25.50
2022-11-27T06:38:14.275Z,26.50
2022-11-27T06:41:18.421Z,24.57
2022-11-27T06:44:21.046Z,22.87
2022-11-27T06:47:23.816Z,19.20
2022-11-27T06:50:26.444Z,24.53
2022-11-27T06:53:31.259Z,25.10
2022-11-27T06:56:33.921Z,23.47
2022-11-27T06:59:36.539Z,23.30
2022-11-27T07:02:39.213Z,22.13
2022-11-27T07:05:41.885Z,21.87
2022-11-27T07:08:45.976Z,20.83
2022-11-27T07:11:48.624Z,21.67
2022-11-27T07:14:51.259Z,23.07
2022-11-27T07:17:53.899Z,21.73
2022-11-27T07:20:56.959Z,16.47
2022-11-27T07:24:01.750Z,20.37
2022-11-27T07:27:04.550Z,23.43
2022-11-27T07:30:08.411Z,21.63
2022-11-27T07:33:11.072Z,21.50
2022-11-27T07:36:16.321Z,19.63
2022-11-27T07:39:34.103Z,22.17
2022-11-27T07:42:43.133Z,17.40
2022-11-27T07:45:45.810Z,23.10
2022-11-27T07:48:48.613Z,21.73
2022-11-27T07:51:51.360Z,16.57
2022-11-27T07:54:55.468Z,19.07
2022-11-27T07:57:58.082Z,23.13
2022-11-27T08:01:00.944Z,19.10
2022-11-27T08:04:03.888Z,18.70
2022-11-27T08:07:06.824Z,21.87
2022-11-27T08:10:11.044Z,24.77
2022-11-27T08:13:13.674Z,23.87
2022-11-27T08:16:16.805Z,18.70
2022-11-27T08:19:19.468Z,15.50
2022-11-27T08:22:22.148Z,18.17
2022-11-27T08:25:26.160Z,21.53
2022-11-27T08:28:28.767Z,15.37
2022-11-27T08:31:31.447Z,25.23
2022-11-27T08:34:34.155Z,18.53
2022-11-27T08:37:37.060Z,17.53
2022-11-27T08:40:41.045Z,18.40
2022-11-27T08:43:43.691Z,21.27
2022-11-27T08:46:46.296Z,17.57
2022-11-27T08:49:48.941Z,18.03
2022-11-27T08:52:51.613Z,19.20
2022-11-27T08:55:55.575Z,17.03
2022-11-27T08:58:58.256Z,19.20
2022-11-27T09:02:00.921Z,17.53
2022-11-27T09:05:06.444Z,17.97
2022-11-27T09:08:09.055Z,18.43
2022-11-27T09:11:14.807Z,18.43
2022-11-27T09:14:17.510Z,18.43
2022-11-27T09:17:20.098Z,22.20
2022-11-27T09:20:22.748Z,16.70
2022-11-27T09:23:25.752Z,20.67
2022-11-27T09:26:31.048Z,17.57
2022-11-27T09:29:34.889Z,21.27
2022-11-27T09:32:37.560Z,20.10
2022-11-27T09:35:40.287Z,23.57
2022-11-27T09:38:43.428Z,15.13
2022-11-27T09:41:50.362Z,20.17
2022-11-27T09:44:58.645Z,18.20
2022-11-27T09:48:06.649Z,20.47
2022-11-27T09:51:15.050Z,17.00
2022-11-27T09:54:21.606Z,18.10
2022-11-27T09:57:30.337Z,17.00
2022-11-27T10:00:33.264Z,22.60
2022-11-27T10:03:35.930Z,15.77
2022-11-27T10:06:50.572Z,16.60
2022-11-27T10:10:05.272Z,15.77
2022-11-27T10:13:19.826Z,14.67
2022-11-27T10:16:30.054Z,19.03
2022-11-27T10:19:36.908Z,17.53
2022-11-27T10:22:47.110Z,15.33
2022-11-27T10:25:51.839Z,14.13
2022-11-27T10:29:04.587Z,18.20
2022-11-27T10:32:32.831Z,17.20
2022-11-27T10:35:37.096Z,18.50
2022-11-27T10:38:41.048Z,15.70
2022-11-27T10:41:52.808Z,19.47
2022-11-27T10:45:01.661Z,19.23
2022-11-27T10:48:04.870Z,17.63
2022-11-27T10:51:16.300Z,15.47
2022-11-27T10:54:24.533Z,19.80
2022-11-27T10:57:44.793Z,16.93
2022-11-27T11:00:48.894Z,13.07
2022-11-27T11:03:51.897Z,13.40
2022-11-27T11:06:54.674Z,16.27
2022-11-27T11:09:57.604Z,17.47
2022-11-27T11:13:19.158Z,14.70
2022-11-27T11:16:28.313Z,17.73
2022-11-27T11:19:35.524Z,14.73
2022-11-27T11:22:38.160Z,14.93
2022-11-27T11:25:40.861Z,16.43
2022-11-27T11:28:49.796Z,17.93
2022-11-27T11:31:55.509Z,17.53
2022-11-27T11:35:01.829Z,14.80
2022-11-27T11:38:07.636Z,17.60
2022-11-27T11:41:12.670Z,14.47
2022-11-27T11:44:23.015Z,20.80
2022-11-27T11:47:27.070Z,17.40
2022-11-27T11:50:35.919Z,18.23
2022-11-27T11:53:40.385Z,19.10
2022-11-27T11:56:49.494Z,16.77
2022-11-27T11:59:59.969Z,16.07
2022-11-27T12:03:19.143Z,15.97
2022-11-27T12:06:35.686Z,17.97
2022-11-27T12:09:50.214Z,17.43
2022-11-27T12:13:01.724Z,14.43
2022-11-27T12:16:10.550Z,14.40
2022-11-27T12:19:42.759Z,14.00
2022-11-27T12:23:25.399Z,13.40
2022-11-27T12:26:41.230Z,19.10
2022-11-27T12:30:06.454Z,15.67
2022-11-27T12:33:26.789Z,13.50
2022-11-27T12:36:46.738Z,17.63
2022-11-27T12:40:02.737Z,13.33
2022-11-27T12:43:15.525Z,13.93
2022-11-27T12:46:25.404Z,15.50
2022-11-27T12:49:33.316Z,12.70
2022-11-27T12:52:42.661Z,19.17
2022-11-27T12:55:51.335Z,16.47
2022-11-27T12:58:58.178Z,16.67
2022-11-27T13:02:06.970Z,14.73
2022-11-27T13:05:14.525Z,15.30
2022-11-27T13:08:25.021Z,17.00
2022-11-27T13:11:31.598Z,14.60
2022-11-27T13:14:39.027Z,16.73
2022-11-27T13:17:44.691Z,14.87
2022-11-27T13:20:52.359Z,14.37
2022-11-27T13:23:56.967Z,15.93
2022-11-27T13:27:04.934Z,14.87
2022-11-27T13:30:10.073Z,13.07
2022-11-27T13:33:27.721Z,14.53
2022-11-27T13:36:37.920Z,16.30
2022-11-27T13:39:43.570Z,18.07
2022-11-27T13:42:49.741Z,14.90
2022-11-27T13:45:52.893Z,16.83
2022-11-27T13:48:57.522Z,15.13
2022-11-27T13:52:10.412Z,19.07
2022-11-27T13:55:26.741Z,13.60
2022-11-27T13:58:32.159Z,15.43
2022-11-27T14:01:35.150Z,13.73
2022-11-27T14:04:54.491Z,15.30
2022-11-27T14:08:00.794Z,19.27
2022-11-27T14:11:08.578Z,16.87
2022-11-27T14:14:19.020Z,12.57
2022-11-27T14:17:28.550Z,13.63
2022-11-27T14:20:33.376Z,15.07
2022-11-27T14:23:49.128Z,12.73
2022-11-27T14:26:53.234Z,11.70
2022-11-27T14:29:55.888Z,14.63
2022-11-27T14:32:58.540Z,13.87
2022-11-27T14:36:03.775Z,12.60
2022-11-27T14:39:06.453Z,11.73
2022-11-27T14:42:26.300Z,13.60
2022-11-27T14:45:31.044Z,14.07
2022-11-27T14:48:44.285Z,14.07
2022-11-27T14:51:47.871Z,12.53
2022-11-27T14:54:51.780Z,14.43
2022-11-27T14:57:56.496Z,14.57
2022-11-27T15:01:01.927Z,14.30
2022-11-27T15:04:06.463Z,13.60
2022-11-27T15:07:16.907Z,15.53
2022-11-27T15:10:35.602Z,14.77
2022-11-27T15:13:39.826Z,12.67
2022-11-27T15:16:47.349Z,15.77
2022-11-27T15:19:50.158Z,16.27
2022-11-27T15:22:55.051Z,14.73
2022-11-27T15:26:14.999Z,15.47
2022-11-27T15:29:36.021Z,13.57
2022-11-27T15:32:51.080Z,15.43
2022-11-27T15:35:54.099Z,12.73
2022-11-27T15:39:16.022Z,11.80
2022-11-27T15:42:19.793Z,12.90
2022-11-27T15:45:24.127Z,15.67
2022-11-27T15:48:26.749Z,14.83
2022-11-27T15:51:30.170Z,12.37
2022-11-27T15:54:32.788Z,11.90
2022-11-27T15:57:35.415Z,13.53
2022-11-27T16:00:39.782Z,15.07
2022-11-27T16:03:42.509Z,18.47
2022-11-27T16:06:45.217Z,23.53
2022-11-27T16:09:48.297Z,18.77
2022-11-27T16:12:54.750Z,17.37
2022-11-27T16:16:02.334Z,15.57
2022-11-27T16:19:06.354Z,15.67
2022-11-27T16:22:08.988Z,16.97
2022-11-27T16:25:11.597Z,15.30
2022-11-27T16:28:14.200Z,16.23
2022-11-27T16:31:18.392Z,17.40
2022-11-27T16:34:21.142Z,11.80
2022-11-27T16:37:23.833Z,14.13
2022-11-27T16:40:27.259Z,16.30
2022-11-27T16:43:30.311Z,18.87
2022-11-27T16:46:34.269Z,15.10
2022-11-27T16:49:36.915Z,19.03
2022-11-27T16:52:39.526Z,15.97
2022-11-27T16:55:43.208Z,15.40
2022-11-27T16:58:47.589Z,18.20
2022-11-27T17:01:51.574Z,17.50
2022-11-27T17:04:54.245Z,15.27
2022-11-27T17:07:56.910Z,20.30
2022-11-27T17:11:02.463Z,17.73
2022-11-27T17:14:08.992Z,23.03
2022-11-27T17:17:12.952Z,20.03
2022-11-27T17:20:15.649Z,23.63
2022-11-27T17:23:18.236Z,21.27
2022-11-27T17:26:23.704Z,20.13
2022-11-27T17:29:26.338Z,17.47
2022-11-27T17:32:30.307Z,19.00
2022-11-27T17:35:32.951Z,16.50
2022-11-27T17:38:35.587Z,16.97
2022-11-27T17:41:39.742Z,15.83
2022-11-27T17:44:42.378Z,17.10
2022-11-27T17:47:46.525Z,17.10
2022-11-27T17:50:49.174Z,19.63
2022-11-27T17:53:51.821Z,20.07
2022-11-27T17:56:54.572Z,17.53
2022-11-27T17:59:57.195Z,19.27
2022-11-27T18:03:06.084Z,22.00
2022-11-27T18:06:10.741Z,19.37
2022-11-27T18:09:13.424Z,16.67
2022-11-27T18:12:16.041Z,18.53
2022-11-27T18:15:18.886Z,20.07
2022-11-27T18:18:22.863Z,21.70
2022-11-27T18:21:28.459Z,16.30
2022-11-27T18:24:31.120Z,19.57
2022-11-27T18:27:34.240Z,21.10
2022-11-27T18:30:36.989Z,17.63
2022-11-27T18:33:41.517Z,21.90
2022-11-27T18:36:45.022Z,21.03
2022-11-27T18:39:48.060Z,18.37
2022-11-27T18:42:50.653Z,19.40
2022-11-27T18:45:53.632Z,17.83
2022-11-27T18:48:57.696Z,15.37
2022-11-27T18:52:00.392Z,18.50
2022-11-27T18:55:03.751Z,19.73
2022-11-27T18:58:06.444Z,15.60
2022-11-27T19:01:12.205Z,21.33
2022-11-27T19:04:16.409Z,23.67
2022-11-27T19:07:19.099Z,18.40
2022-11-27T19:10:21.823Z,19.90
2022-11-27T19:13:24.438Z,18.60
2022-11-27T19:16:29.731Z,18.73
2022-11-27T19:19:53.997Z,20.40
2022-11-27T19:22:56.617Z,19.53
2022-11-27T19:25:59.242Z,22.03
2022-11-27T19:29:05.458Z,16.13
2022-11-27T19:32:08.144Z,17.47
2022-11-27T19:35:12.386Z,15.63
2022-11-27T19:38:15.006Z,15.63
2022-11-27T19:41:18.911Z,17.70
2022-11-27T19:44:21.526Z,20.77
2022-11-27T19:47:24.259Z,15.57
2022-11-27T19:50:28.294Z,15.93
2022-11-27T19:53:30.932Z,17.43
2022-11-27T19:56:35.539Z,17.30
2022-11-27T19:59:40.031Z,16.40
2022-11-27T20:02:42.659Z,17.83
2022-11-27T20:05:46.704Z,16.37
2022-11-27T20:08:50.994Z,18.27
2022-11-27T20:11:53.703Z,16.03
2022-11-27T20:14:57.563Z,17.90
2022-11-27T20:18:00.166Z,20.33
2022-11-27T20:21:08.588Z,20.40
2022-11-27T20:24:11.613Z,18.30
2022-11-27T20:27:14.242Z,16.97
2022-11-27T20:30:16.955Z,20.00
2022-11-27T20:33:20.929Z,16.50
2022-11-27T20:36:25.585Z,16.87
2022-11-27T20:39:28.612Z,16.37
2022-11-27T20:42:31.396Z,18.10
2022-11-27T20:45:37.951Z,19.93
2022-11-27T20:48:40.711Z,17.40
2022-11-27T20:51:44.712Z,20.10
2022-11-27T20:54:47.349Z,19.60
2022-11-27T20:57:54.589Z,16.97
2022-11-27T21:01:00.081Z,19.90
2022-11-27T21:04:08.980Z,19.67
2022-11-27T21:07:14.639Z,20.23
2022-11-27T21:10:18.103Z,18.33
2022-11-27T21:13:20.744Z,19.93
2022-11-27T21:16:25.165Z,15.67
2022-11-27T21:19:28.457Z,19.70
2022-11-27T21:22:33.778Z,18.33
2022-11-27T21:25:38.748Z,18.10
2022-11-27T21:28:42.670Z,19.10
2022-11-27T21:31:47.429Z,15.30
2022-11-27T21:34:51.271Z,19.40
2022-11-27T21:37:55.675Z,15.43
2022-11-27T21:40:58.488Z,16.90
2022-11-27T21:44:03.566Z,16.67
2022-11-27T21:47:11.687Z,17.83
2022-11-27T21:50:14.741Z,13.77
2022-11-27T21:53:19.087Z,17.23
2022-11-27T21:56:23.573Z,20.37
2022-11-27T21:59:26.245Z,21.80
2022-11-27T22:02:28.914Z,18.53
2022-11-27T22:05:31.864Z,19.17
2022-11-27T22:08:37.050Z,17.70
2022-11-27T22:11:39.681Z,23.03
2022-11-27T22:14:42.501Z,20.73
2022-11-27T22:17:45.317Z,16.43
2022-11-27T22:20:47.966Z,15.60
2022-11-27T22:23:54.568Z,18.23
2022-11-27T22:26:57.189Z,16.70
2022-11-27T22:29:59.836Z,20.60
2022-11-27T22:33:02.471Z,15.50
2022-11-27T22:36:17.046Z,17.43
2022-11-27T22:39:21.027Z,19.97
2022-11-27T22:42:23.640Z,20.53
2022-11-27T22:45:26.309Z,21.70
2022-11-27T22:48:28.951Z,16.33
2022-11-27T22:51:33.280Z,18.70
2022-11-27T22:54:37.267Z,19.10
2022-11-27T22:57:39.911Z,15.60
2022-11-27T23:00:42.552Z,18.77
2022-11-27T23:03:45.237Z,14.33
2022-11-27T23:06:48.539Z,14.67
2022-11-27T23:09:52.744Z,18.97
2022-11-27T23:12:55.350Z,16.17
2022-11-27T23:15:59.123Z,16.07
2022-11-27T23:19:01.805Z,17.97
2022-11-27T23:22:04.728Z,18.17
2022-11-27T23:25:10.079Z,12.97
2022-11-27T23:28:12.769Z,13.73
2022-11-27T23:31:33.864Z,14.73
2022-11-27T23:34:36.570Z,17.90
2022-11-27T23:37:39.257Z,12.77
2022-11-27T23:40:43.213Z,15.17
2022-11-27T23:43:45.853Z,18.10
2022-11-27T23:46:48.510Z,13.50
2022-11-27T23:49:51.120Z,13.93
2022-11-27T23:52:55.047Z,17.90
2022-11-27T23:56:02.180Z,15.73
2022-11-27T23:59:04.923Z,14.43
